Time;durP1;ratioP1;P1;durP2;ratioP2;P2;SDS_P1;SDS_P2;PMS_P1;PMS_P2;Temp;Humidity;BMP_temperature;BMP_pressure;BME280_temperature;BME280_humidity;BME280_pressure;Samples;Min_cycle;Max_cycle;Signal;HPM_P1;HPM_P2
2021/06/14 00:00:14;;;;;;;8.13;2.00;;;17.20;48.40;;;;;;6071132;23;20022;-76
2021/06/14 00:02:42;;;;;;;14.98;2.78;;;17.20;48.50;;;;;;6071005;23;20007;-73
2021/06/14 00:05:33;;;;;;;5.07;2.00;;;17.10;48.30;;;;;;6095093;23;20018;-73
2021/06/14 00:08:01;;;;;;;9.00;2.10;;;17.10;48.40;;;;;;6096490;23;20082;-76
2021/06/14 00:10:30;;;;;;;4.25;1.70;;;17.00;48.00;;;;;;6071056;23;20436;-76
2021/06/14 00:12:56;;;;;;;7.15;2.47;;;17.00;48.30;;;;;;6095187;23;20465;-76
2021/06/14 00:15:24;;;;;;;7.68;2.50;;;17.00;47.80;;;;;;6095283;23;20074;-75
2021/06/14 00:17:51;;;;;;;4.25;2.05;;;17.00;48.30;;;;;;6098394;23;20030;-72
2021/06/14 00:20:19;;;;;;;6.47;2.33;;;16.90;48.40;;;;;;6072743;23;20022;-73
2021/06/14 00:22:46;;;;;;;7.13;3.00;;;16.90;48.50;;;;;;6072851;23;20011;-76
2021/06/14 00:25:26;;;;;;;6.05;2.00;;;16.90;48.90;;;;;;6073001;23;20443;-73
2021/06/14 00:27:53;;;;;;;6.40;2.08;;;16.90;49.10;;;;;;6072821;23;20006;-76
2021/06/14 00:32:59;;;;;;;5.32;1.80;;;16.80;49.20;;;;;;6098599;23;20074;-72
2021/06/14 00:35:25;;;;;;;7.70;2.20;;;16.80;48.90;;;;;;6072453;23;20053;-75
2021/06/14 00:37:52;;;;;;;7.05;1.85;;;16.70;48.50;;;;;;6072786;23;20006;-75
2021/06/14 00:40:19;;;;;;;6.53;1.95;;;16.70;48.60;;;;;;6072603;23;20025;-73
2021/06/14 00:42:45;;;;;;;7.88;2.13;;;16.70;49.20;;;;;;6072566;23;20013;-76
2021/06/14 00:45:15;;;;;;;6.38;2.00;;;16.70;49.70;;;;;;6072522;23;20030;-75
2021/06/14 00:48:03;;;;;;;4.93;2.22;;;16.60;49.20;;;;;;6072454;23;20384;-76
2021/06/14 00:50:43;;;;;;;10.00;2.60;;;16.60;49.20;;;;;;6098398;23;20023;-76
2021/06/14 00:53:29;;;;;;;5.80;1.67;;;16.60;49.40;;;;;;6098050;23;20078;-76
2021/06/14 00:55:57;;;;;;;4.70;1.90;;;16.50;49.90;;;;;;6097775;23;20028;-76
2021/06/14 00:58:24;;;;;;;4.63;2.00;;;16.50;50.00;;;;;;6097984;23;20482;-73
2021/06/14 01:00:51;;;;;;;4.32;1.98;;;16.30;50.00;;;;;;6096624;23;20109;-76
2021/06/14 01:03:17;;;;;;;5.70;2.15;;;16.20;50.30;;;;;;6072475;23;20344;-75
2021/06/14 01:05:49;;;;;;;7.93;2.30;;;16.20;51.00;;;;;;6098124;23;20018;-76
2021/06/14 01:08:15;;;;;;;10.45;2.38;;;16.10;51.30;;;;;;6072770;23;20010;-75
2021/06/14 01:10:43;;;;;;;4.70;2.28;;;16.00;51.10;;;;;;6072613;23;20022;-73
2021/06/14 01:14:07;;;;;;;5.57;2.20;;;16.00;51.70;;;;;;6096345;23;20010;-72
2021/06/14 01:17:29;;;;;;;6.03;1.70;;;15.90;52.10;;;;;;6072080;23;20049;-73
2021/06/14 01:20:39;;;;;;;4.88;2.20;;;15.80;51.70;;;;;;6072055;23;20026;-74
2021/06/14 01:23:30;;;;;;;6.55;1.80;;;15.80;52.10;;;;;;6097745;23;20014;-76
2021/06/14 01:26:21;;;;;;;6.15;1.95;;;15.70;52.70;;;;;;6072389;23;20436;-73
2021/06/14 01:29:07;;;;;;;5.45;2.05;;;15.60;52.90;;;;;;6072623;23;20332;-76
2021/06/14 01:31:36;;;;;;;8.48;2.25;;;15.50;53.20;;;;;;6072136;23;20388;-72
2021/06/14 01:34:05;;;;;;;8.13;2.50;;;15.50;53.30;;;;;;6072170;23;20007;-72
2021/06/14 01:36:35;;;;;;;5.45;1.90;;;15.50;53.60;;;;;;6072065;23;20014;-73
2021/06/14 01:39:05;;;;;;;5.97;1.90;;;15.40;53.40;;;;;;6096015;23;20388;-72
2021/06/14 01:41:32;;;;;;;6.40;2.50;;;15.40;53.50;;;;;;6071881;23;20014;-72
2021/06/14 01:44:03;;;;;;;6.25;2.10;;;15.40;53.40;;;;;;6097326;23;20057;-72
2021/06/14 01:46:37;;;;;;;5.50;2.53;;;15.30;53.70;;;;;;6097498;23;20010;-72
2021/06/14 01:49:07;;;;;;;7.35;2.55;;;15.30;53.60;;;;;;6095943;23;20356;-76
2021/06/14 01:51:38;;;;;;;7.15;2.20;;;15.20;54.00;;;;;;6071917;23;20105;-75
2021/06/14 01:54:08;;;;;;;5.78;1.77;;;15.10;54.00;;;;;;6071958;23;20486;-76
2021/06/14 01:56:53;;;;;;;5.25;2.05;;;15.10;54.30;;;;;;6072479;23;20340;-75
2021/06/14 01:59:41;;;;;;;6.22;2.10;;;15.10;54.40;;;;;;6071748;23;20290;-75
2021/06/14 02:02:09;;;;;;;6.38;2.15;;;15.10;54.10;;;;;;6072204;23;20045;-75
2021/06/14 02:04:38;;;;;;;6.40;2.20;;;15.00;54.60;;;;;;6047833;23;20018;-75
2021/06/14 02:07:05;;;;;;;4.43;2.00;;;14.90;54.70;;;;;;6071911;23;20011;-75
2021/06/14 02:09:33;;;;;;;5.57;2.42;;;14.90;55.00;;;;;;6071549;23;20026;-72
2021/06/14 02:12:04;;;;;;;8.48;2.40;;;14.80;55.10;;;;;;6097238;23;20451;-72
2021/06/14 02:14:35;;;;;;;4.35;1.92;;;14.70;55.60;;;;;;6095578;23;20022;-75
2021/06/14 02:17:17;;;;;;;4.70;1.90;;;14.70;55.90;;;;;;6095579;23;20010;-72
2021/06/14 02:19:46;;;;;;;7.78;2.13;;;14.70;56.20;;;;;;6071545;23;20038;-75
2021/06/14 02:22:15;;;;;;;4.80;1.92;;;14.50;56.20;;;;;;6097180;23;20007;-76
2021/06/14 02:24:42;;;;;;;5.57;1.95;;;14.50;56.10;;;;;;6095544;23;20449;-72
2021/06/14 02:27:15;;;;;;;6.30;1.70;;;14.40;56.30;;;;;;6095584;23;20351;-74
2021/06/14 02:29:42;;;;;;;5.45;1.80;;;14.40;56.60;;;;;;6095079;23;20025;-75
2021/06/14 02:32:09;;;;;;;4.53;2.00;;;14.30;56.10;;;;;;6095694;23;20049;-72
2021/06/14 02:34:37;;;;;;;6.30;1.95;;;14.30;56.20;;;;;;6071412;23;20018;-76
2021/06/14 02:37:04;;;;;;;7.28;2.08;;;14.20;56.70;;;;;;6096939;23;20425;-72
2021/06/14 02:39:32;;;;;;;6.65;1.95;;;14.20;56.70;;;;;;6071288;23;20396;-72
2021/06/14 02:42:00;;;;;;;8.13;1.77;;;14.20;56.90;;;;;;6071655;23;20011;-75
2021/06/14 02:44:29;;;;;;;7.05;2.13;;;14.20;56.60;;;;;;6095223;23;20085;-73
2021/06/14 02:47:01;;;;;;;8.63;1.98;;;14.10;57.20;;;;;;6071476;23;20090;-75
2021/06/14 02:49:29;;;;;;;7.35;2.28;;;14.10;57.30;;;;;;6095368;23;20018;-72
2021/06/14 02:52:00;;;;;;;5.95;2.55;;;13.90;57.40;;;;;;6071394;23;20081;-73
2021/06/14 02:55:22;;;;;;;6.60;2.22;;;13.90;57.70;;;;;;6095305;23;20337;-73
2021/06/14 02:57:53;;;;;;;11.73;2.33;;;13.80;57.60;;;;;;6096891;23;20057;-72
2021/06/14 03:00:41;;;;;;;7.95;2.10;;;13.80;58.00;;;;;;6097030;23;20018;-75
2021/06/14 03:03:08;;;;;;;9.40;2.33;;;13.80;58.00;;;;;;6071484;23;20085;-72
2021/06/14 03:05:36;;;;;;;6.88;2.50;;;13.70;58.30;;;;;;6096983;23;20053;-75
2021/06/14 03:08:04;;;;;;;6.15;2.28;;;13.60;58.20;;;;;;6047330;23;20018;-72
2021/06/14 03:10:32;;;;;;;8.10;2.00;;;13.60;58.50;;;;;;6095366;23;20026;-76
2021/06/14 03:13:01;;;;;;;7.93;2.17;;;13.70;59.60;;;;;;6047363;23;20010;-76
2021/06/14 03:15:29;;;;;;;6.07;2.25;;;13.80;59.70;;;;;;6071575;23;20022;-75
2021/06/14 03:17:56;;;;;;;10.98;2.17;;;13.80;59.40;;;;;;6071284;23;20058;-75
2021/06/14 03:20:25;;;;;;;6.40;2.10;;;13.90;58.80;;;;;;6071080;23;20018;-75
2021/06/14 03:22:53;;;;;;;5.13;2.05;;;13.90;58.50;;;;;;6071424;23;20010;-75
2021/06/14 03:25:20;;;;;;;6.03;2.40;;;13.90;58.30;;;;;;6071319;23;20462;-73
2021/06/14 03:27:46;;;;;;;9.77;2.10;;;13.90;58.30;;;;;;6071078;23;20436;-72
2021/06/14 03:30:14;;;;;;;7.32;2.80;;;13.80;58.50;;;;;;6070786;23;20025;-75
2021/06/14 03:32:44;;;;;;;7.38;2.80;;;13.80;58.50;;;;;;6095077;23;20010;-72
2021/06/14 03:35:31;;;;;;;6.03;2.60;;;13.80;58.70;;;;;;6071186;23;20422;-73
2021/06/14 03:37:57;;;;;;;9.23;3.05;;;13.70;58.10;;;;;;6071205;23;20011;-72
2021/06/14 03:40:24;;;;;;;;;;;13.70;58.70;;;;;;6071753;23;20070;-75
2021/06/14 03:42:58;;;;;;;9.25;3.00;;;13.70;58.20;;;;;;6095112;23;19909;-74
2021/06/14 03:45:24;;;;;;;6.65;2.65;;;13.60;58.80;;;;;;6070986;23;20026;-75
2021/06/14 03:47:51;;;;;;;18.23;2.90;;;13.60;58.90;;;;;;6071159;23;20026;-75
2021/06/14 03:50:18;;;;;;;7.65;2.30;;;13.60;59.30;;;;;;6098022;23;20022;-73
2021/06/14 03:52:45;;;;;;;7.22;2.13;;;13.60;59.20;;;;;;6073021;23;20093;-75
2021/06/14 03:55:12;;;;;;;9.82;2.35;;;13.40;59.40;;;;;;6048951;23;20030;-76
2021/06/14 03:57:39;;;;;;;7.47;2.50;;;13.40;59.30;;;;;;6072980;23;20011;-72
2021/06/14 04:00:10;;;;;;;5.32;2.22;;;13.50;59.90;;;;;;6098772;23;20019;-76
2021/06/14 04:02:36;;;;;;;8.70;3.38;;;13.40;59.70;;;;;;6073098;23;20006;-76
2021/06/14 04:05:06;;;;;;;7.47;2.70;;;13.40;59.50;;;;;;6098675;23;20086;-75
2021/06/14 04:07:32;;;;;;;7.47;2.53;;;13.40;60.20;;;;;;6098417;23;20030;-72
2021/06/14 04:09:59;;;;;;;6.53;2.58;;;13.40;59.80;;;;;;6072905;23;20018;-72
2021/06/14 04:12:46;;;;;;;8.55;2.65;;;13.40;59.90;;;;;;6097000;23;20444;-72
2021/06/14 04:15:12;;;;;;;6.32;2.80;;;13.50;60.70;;;;;;6098582;23;20398;-75
2021/06/14 04:17:38;;;;;;;6.75;2.65;;;13.50;60.10;;;;;;6072799;23;20034;-72
2021/06/14 04:20:07;;;;;;;8.73;3.40;;;13.50;60.90;;;;;;6098510;23;20026;-72
2021/06/14 04:22:33;;;;;;;9.98;2.40;;;13.60;61.00;;;;;;6098321;23;20456;-72
2021/06/14 04:25:00;;;;;;;7.40;3.03;;;13.60;61.10;;;;;;6072655;23;20073;-72
2021/06/14 04:27:26;;;;;;;5.60;2.55;;;13.60;61.00;;;;;;6098134;23;20014;-75
2021/06/14 04:29:52;;;;;;;10.88;3.10;;;13.70;61.00;;;;;;6097960;23;20026;-72
2021/06/14 04:32:19;;;;;;;;;;;13.70;61.20;;;;;;6073445;23;20014;-73
2021/06/14 04:34:45;;;;;;;5.85;2.80;;;13.70;59.70;;;;;;6098390;23;19940;-75
2021/06/14 04:37:12;;;;;;;13.30;5.82;;;13.80;60.80;;;;;;6098158;23;20019;-72
2021/06/14 04:39:38;;;;;;;21.60;10.13;;;13.90;60.90;;;;;;6096506;23;20019;-72
2021/06/14 04:42:06;;;;;;;17.52;8.50;;;13.90;60.80;;;;;;6097753;23;20010;-73
2021/06/14 04:44:32;;;;;;;12.52;6.55;;;14.00;60.40;;;;;;6072623;23;20014;-72
2021/06/14 04:46:58;;;;;;;13.50;6.32;;;14.00;60.60;;;;;;6096628;23;20007;-75
2021/06/14 04:49:25;;;;;;;;;;;14.10;60.70;;;;;;6072989;23;20443;-72
2021/06/14 04:51:52;;;;;;;12.30;5.53;;;14.10;59.40;;;;;;6072488;23;19972;-73
2021/06/14 04:54:18;;;;;;;18.13;6.07;;;14.20;60.30;;;;;;6097963;23;20014;-72
2021/06/14 04:56:44;;;;;;;15.90;5.65;;;14.30;60.30;;;;;;6048497;23;20447;-75
2021/06/14 04:59:11;;;;;;;15.68;5.95;;;14.30;60.20;;;;;;6072388;23;20712;-75
2021/06/14 05:01:37;;;;;;;12.07;3.85;;;14.40;60.20;;;;;;6071775;23;20041;-75
2021/06/14 05:04:04;;;;;;;;;;;14.50;60.30;;;;;;6098412;23;20006;-72
2021/06/14 05:06:30;;;;;;;7.50;2.42;;;14.50;59.50;;;;;;6048299;23;19913;-73
2021/06/14 05:08:57;;;;;;;6.13;2.40;;;14.60;59.90;;;;;;6072383;23;20011;-73
2021/06/14 05:11:23;;;;;;;6.97;2.30;;;14.70;59.10;;;;;;6096322;23;20116;-72
2021/06/14 05:13:49;;;;;;;;;;;14.80;59.40;;;;;;6073107;23;20321;-72
2021/06/14 05:16:16;;;;;;;6.25;2.58;;;14.90;59.10;;;;;;6071961;23;19924;-74
2021/06/14 05:18:42;;;;;;;6.03;2.55;;;14.90;59.40;;;;;;6096272;23;20034;-74
2021/06/14 05:21:08;;;;;;;4.28;1.90;;;15.00;59.30;;;;;;6072557;23;20018;-75
2021/06/14 05:23:34;;;;;;;;;;;15.10;58.20;;;;;;6072636;23;20041;-74
2021/06/14 05:26:00;;;;;;;5.40;2.30;;;15.10;57.40;;;;;;6095802;23;19914;-72
2021/06/14 05:28:26;;;;;;;;;;;15.30;57.60;;;;;;6098187;23;20010;-72
2021/06/14 05:30:53;;;;;;;8.88;2.63;;;15.30;57.00;;;;;;6071912;23;19969;-74
2021/06/14 05:33:19;;;;;;;7.60;2.10;;;15.40;57.20;;;;;;6072276;23;20016;-72
2021/06/14 05:35:45;;;;;;;;;;;15.50;57.30;;;;;;6072637;23;20018;-72
2021/06/14 05:38:11;;;;;;;5.70;2.03;;;15.60;57.10;;;;;;6097632;23;19913;-74
2021/06/14 05:40:38;;;;;;;;;;;15.70;57.30;;;;;;6072614;23;20042;-75
2021/06/14 05:43:04;;;;;;;9.50;2.70;;;15.70;56.60;;;;;;6072189;23;20322;-72
2021/06/14 05:45:30;;;;;;;8.88;2.20;;;15.80;57.30;;;;;;6072119;23;20018;-74
2021/06/14 05:47:56;;;;;;;;;;;15.90;57.50;;;;;;6072737;23;20444;-74
2021/06/14 05:50:23;;;;;;;5.20;2.00;;;16.00;55.50;;;;;;6097270;23;19917;-74
2021/06/14 05:52:49;;;;;;;7.47;2.53;;;16.10;55.70;;;;;;6072140;23;20010;-74
2021/06/14 05:55:15;;;;;;;;;;;16.20;55.80;;;;;;6098144;23;20066;-72
2021/06/14 05:57:42;;;;;;;5.10;2.20;;;16.30;55.50;;;;;;6097432;23;19937;-73
2021/06/14 06:00:10;;;;;;;6.10;2.42;;;16.40;54.80;;;;;;6071948;23;20459;-71
2021/06/14 06:02:37;;;;;;;8.32;1.98;;;16.50;55.20;;;;;;6071932;23;20011;-75
2021/06/14 06:05:06;;;;;;;8.95;2.47;;;16.60;54.80;;;;;;6097465;23;20019;-72
2021/06/14 06:07:34;;;;;;;14.93;2.38;;;16.70;53.90;;;;;;6097260;23;20085;-72
2021/06/14 06:10:00;;;;;;;5.78;1.92;;;16.80;53.50;;;;;;6071862;23;20046;-73
2021/06/14 06:12:26;;;;;;;;;;;16.90;53.30;;;;;;6097816;23;20057;-73
2021/06/14 06:14:53;;;;;;;6.70;2.10;;;17.00;52.80;;;;;;6071634;23;19951;-74
2021/06/14 06:17:19;;;;;;;8.02;2.20;;;17.00;52.20;;;;;;6071655;23;20101;-73
2021/06/14 06:19:48;;;;;;;6.50;2.40;;;17.10;51.80;;;;;;6071513;23;20246;-73
2021/06/14 06:22:15;;;;;;;9.50;2.35;;;17.20;50.20;;;;;;6047753;23;20017;-73
2021/06/14 06:24:41;;;;;;;6.32;2.25;;;17.30;49.10;;;;;;6097099;23;20045;-72
2021/06/14 06:27:07;;;;;;;;;;;17.30;49.60;;;;;;6096399;23;20392;-71
2021/06/14 06:29:34;;;;;;;6.97;1.90;;;17.40;49.40;;;;;;6071338;23;20000;-74
2021/06/14 06:32:00;;;;;;;6.05;1.80;;;17.50;47.90;;;;;;6097111;23;20480;-72
2021/06/14 06:34:26;;;;;;;5.78;1.95;;;17.50;47.10;;;;;;6097018;23;20018;-72
2021/06/14 06:36:52;;;;;;;;;;;17.60;46.70;;;;;;6072025;23;20112;-72
2021/06/14 06:39:18;;;;;;;8.02;2.25;;;17.80;47.40;;;;;;6096870;23;19940;-72
2021/06/14 06:41:44;;;;;;;;;;;17.90;46.70;;;;;;6097601;23;20017;-75
2021/06/14 06:44:11;;;;;;;6.15;1.88;;;18.10;47.10;;;;;;6095479;23;19925;-72
2021/06/14 06:46:39;;;;;;;5.85;1.42;;;18.10;44.90;;;;;;6095379;23;20082;-74
2021/06/14 06:49:06;;;;;;;4.95;1.50;;;18.20;44.90;;;;;;6095413;23;20015;-72
2021/06/14 06:51:32;;;;;;;4.30;1.40;;;18.30;45.00;;;;;;6071357;23;20309;-74
2021/06/14 06:54:11;;;;;;;7.55;1.75;;;18.50;45.00;;;;;;6071184;23;20015;-73
2021/06/14 06:56:59;;;;;;;7.75;2.00;;;18.60;43.60;;;;;;6096660;23;20015;-75
2021/06/14 06:59:25;;;;;;;8.30;3.28;;;18.70;43.50;;;;;;6071134;23;20025;-72
2021/06/14 07:01:52;;;;;;;9.55;1.90;;;18.80;43.50;;;;;;6096866;23;20015;-75
2021/06/14 07:04:18;;;;;;;4.70;1.70;;;18.80;42.30;;;;;;6047304;23;20022;-74
2021/06/14 07:06:45;;;;;;;5.88;1.73;;;19.00;42.70;;;;;;6095229;23;20014;-74
2021/06/14 07:09:11;;;;;;;6.18;1.95;;;19.10;42.40;;;;;;6047301;23;20592;-72
2021/06/14 07:11:38;;;;;;;5.50;1.95;;;19.30;42.40;;;;;;6095268;23;20033;-73
2021/06/14 07:14:04;;;;;;;9.95;1.58;;;19.50;42.00;;;;;;6095244;23;20388;-75
2021/06/14 07:16:31;;;;;;;8.48;1.90;;;19.80;42.00;;;;;;6071151;23;20010;-75
2021/06/14 07:18:58;;;;;;;9.77;2.15;;;19.80;41.40;;;;;;6071113;23;20006;-72
2021/06/14 07:21:25;;;;;;;3.92;1.73;;;19.90;41.50;;;;;;6071339;23;20053;-71
2021/06/14 07:23:53;;;;;;;13.60;2.53;;;20.10;41.30;;;;;;6096311;23;20015;-72
2021/06/14 07:26:21;;;;;;;15.38;2.65;;;20.30;41.00;;;;;;6071178;23;20014;-73
2021/06/14 07:28:48;;;;;;;6.00;1.95;;;20.40;40.80;;;;;;6071294;23;20062;-72
2021/06/14 07:31:17;;;;;;;4.07;1.70;;;20.50;40.10;;;;;;6094817;23;20018;-72
2021/06/14 07:33:43;;;;;;;6.22;2.17;;;20.50;40.10;;;;;;6095153;23;20084;-72
2021/06/14 07:36:12;;;;;;;7.60;2.08;;;20.50;39.20;;;;;;6095203;23;20072;-75
2021/06/14 07:38:39;;;;;;;5.65;1.80;;;20.40;39.30;;;;;;6071015;23;20089;-75
2021/06/14 07:41:06;;;;;;;15.00;1.98;;;20.50;39.50;;;;;;6095362;23;20026;-72
2021/06/14 07:43:34;;;;;;;17.92;2.53;;;20.50;38.80;;;;;;6070912;23;20010;-74
2021/06/14 07:46:01;;;;;;;11.13;2.40;;;20.70;38.50;;;;;;6095327;23;20085;-75
2021/06/14 07:48:27;;;;;;;11.32;2.13;;;20.90;38.50;;;;;;6070901;23;20077;-72
2021/06/14 07:50:55;;;;;;;13.57;2.35;;;21.10;38.40;;;;;;6071203;23;20080;-75
2021/06/14 07:53:21;;;;;;;8.50;2.50;;;21.10;38.10;;;;;;6095154;23;20010;-73
2021/06/14 07:55:48;;;;;;;12.48;1.90;;;21.40;39.00;;;;;;6096859;23;20025;-76
2021/06/14 07:58:14;;;;;;;8.65;2.42;;;21.60;38.00;;;;;;6095005;23;20053;-75
2021/06/14 08:00:41;;;;;;;7.28;2.20;;;21.70;37.00;;;;;;6071045;23;20022;-75
2021/06/14 08:03:09;;;;;;;5.07;1.85;;;21.80;37.40;;;;;;6096561;23;20380;-75
2021/06/14 08:05:35;;;;;;;6.00;1.80;;;22.00;37.10;;;;;;6095109;23;20018;-74
2021/06/14 08:08:02;;;;;;;8.40;1.75;;;22.10;37.00;;;;;;6047075;23;20038;-72
2021/06/14 08:10:29;;;;;;;6.43;2.03;;;22.20;36.10;;;;;;6071016;23;20055;-75
2021/06/14 08:12:55;;;;;;;5.80;1.98;;;22.50;36.10;;;;;;6096478;23;20026;-75
2021/06/14 08:15:42;;;;;;;5.10;1.60;;;22.70;35.60;;;;;;6096167;23;20127;-72
2021/06/14 08:18:21;;;;;;;;;;;23.00;35.10;;;;;;6071770;23;20038;-76
2021/06/14 08:26:22;;;;;;;8.93;1.98;;;23.20;34.70;;;;;;6074925;23;20001;-76
2021/06/14 08:28:49;;;;;;;6.07;1.90;;;23.10;34.20;;;;;;6071021;23;20448;-73
2021/06/14 08:31:15;;;;;;;4.20;1.55;;;23.10;34.80;;;;;;6070473;23;20026;-73
2021/06/14 08:33:41;;;;;;;4.13;1.65;;;23.10;34.20;;;;;;6096735;23;20324;-76
2021/06/14 08:36:08;;;;;;;4.80;2.13;;;23.10;34.20;;;;;;6047215;23;20018;-72
2021/06/14 08:38:34;;;;;;;6.30;1.80;;;23.00;33.90;;;;;;6072646;23;20057;-75
2021/06/14 08:41:00;;;;;;;6.47;2.40;;;22.90;34.00;;;;;;6098648;23;20045;-76
2021/06/14 08:43:27;;;;;;;6.78;2.22;;;22.90;34.00;;;;;;6096357;23;20034;-72
2021/06/14 08:45:56;;;;;;;10.73;2.72;;;22.80;34.10;;;;;;6072788;23;20384;-74
2021/06/14 08:48:23;;;;;;;13.70;4.05;;;22.90;34.30;;;;;;6098371;23;20030;-76
2021/06/14 08:50:50;;;;;;;18.65;3.35;;;22.70;35.00;;;;;;6096799;23;20061;-73
2021/06/14 08:53:17;;;;;;;15.45;4.20;;;22.70;35.00;;;;;;6096958;23;20010;-76
2021/06/14 08:55:45;;;;;;;6.50;1.60;;;22.90;35.20;;;;;;6096248;23;20404;-76
2021/06/14 08:58:12;;;;;;;5.70;2.10;;;22.90;34.50;;;;;;6072353;23;20017;-73
2021/06/14 09:00:38;;;;;;;5.22;1.85;;;23.20;34.20;;;;;;6072386;23;20262;-76
2021/06/14 09:03:05;;;;;;;5.00;1.98;;;23.20;34.00;;;;;;6097891;23;20340;-75
2021/06/14 09:05:32;;;;;;;7.55;2.25;;;23.30;33.90;;;;;;6096487;23;20022;-76
2021/06/14 09:08:01;;;;;;;6.40;2.33;;;23.40;34.50;;;;;;6072477;23;20010;-72
2021/06/14 09:10:47;;;;;;;6.13;1.92;;;23.60;33.70;;;;;;6098105;23;20023;-76
2021/06/14 09:13:32;;;;;;;6.68;2.15;;;23.70;33.50;;;;;;6072349;23;20339;-76
2021/06/14 09:16:17;;;;;;;5.72;2.20;;;23.80;33.50;;;;;;6072574;23;20019;-76
2021/06/14 09:18:45;;;;;;;4.40;1.70;;;23.80;33.90;;;;;;6072349;23;20015;-72
2021/06/14 09:21:14;;;;;;;8.55;2.60;;;23.80;33.80;;;;;;6096480;23;20025;-72
2021/06/14 09:24:18;;;;;;;6.45;2.13;;;23.80;33.10;;;;;;6096181;23;20010;-72
2021/06/14 09:26:45;;;;;;;6.15;1.83;;;24.00;33.60;;;;;;6097658;23;20511;-76
2021/06/14 09:29:19;;;;;;;5.75;2.10;;;24.10;33.40;;;;;;6096194;23;21874;-72
2021/06/14 09:31:51;;;;;;;4.78;1.80;;;24.30;32.90;;;;;;6097732;23;20049;-73
2021/06/14 09:34:18;;;;;;;6.47;2.08;;;24.50;32.70;;;;;;6096184;23;20010;-72
2021/06/14 09:37:07;;;;;;;10.10;2.15;;;24.50;32.30;;;;;;6071999;23;20463;-73
2021/06/14 09:39:51;;;;;;;7.03;1.85;;;24.80;32.40;;;;;;6097407;23;20018;-75
2021/06/14 09:42:38;;;;;;;5.43;2.13;;;25.10;31.40;;;;;;6097559;23;20085;-73
2021/06/14 09:45:08;;;;;;;6.25;1.92;;;25.10;31.80;;;;;;6048274;23;20024;-76
2021/06/14 09:47:34;;;;;;;5.18;1.70;;;26.00;30.40;;;;;;6071829;23;20015;-72
2021/06/14 09:50:42;;;;;;;30.05;3.00;;;27.10;29.30;;;;;;6072049;23;20042;-73
2021/06/14 09:53:10;;;;;;;7.00;2.55;;;28.20;28.80;;;;;;6072202;23;20340;-72
2021/06/14 09:55:39;;;;;;;9.43;2.10;;;28.80;27.80;;;;;;6072001;23;20019;-76
2021/06/14 09:58:18;;;;;;;6.10;2.83;;;29.20;27.00;;;;;;6071920;23;20069;-72
2021/06/14 10:01:03;;;;;;;12.57;2.33;;;29.80;26.20;;;;;;6072043;23;20496;-73
2021/06/14 10:03:51;;;;;;;4.90;2.03;;;30.60;25.80;;;;;;6072095;23;20018;-75
2021/06/14 10:06:50;;;;;;;7.05;2.30;;;31.20;24.90;;;;;;6048018;23;20455;-76
2021/06/14 10:09:18;;;;;;;7.07;2.08;;;31.80;23.80;;;;;;6071679;23;20073;-75
2021/06/14 10:11:46;;;;;;;9.85;2.58;;;32.30;22.70;;;;;;6072012;23;20050;-73
2021/06/14 10:14:22;;;;;;;8.52;2.20;;;32.50;23.40;;;;;;6095738;23;20424;-76
2021/06/14 10:17:08;;;;;;;5.22;2.03;;;33.10;23.20;;;;;;6097243;23;20018;-76
2021/06/14 10:19:38;;;;;;;5.43;2.53;;;33.90;22.90;;;;;;6096921;23;20011;-72
2021/06/14 10:22:04;;;;;;;8.40;2.20;;;34.40;21.30;;;;;;6097025;23;20018;-73
2021/06/14 10:24:30;;;;;;;11.73;2.40;;;34.90;20.60;;;;;;6097062;23;20038;-76
2021/06/14 10:26:57;;;;;;;8.65;1.90;;;35.50;20.90;;;;;;6095667;23;20094;-73
2021/06/14 10:29:24;;;;;;;7.80;2.65;;;36.00;20.10;;;;;;6096708;23;20085;-73
2021/06/14 10:31:55;;;;;;;5.35;2.08;;;36.20;20.20;;;;;;6071839;23;20082;-73
2021/06/14 10:34:23;;;;;;;6.30;2.13;;;36.80;19.70;;;;;;6071454;23;20023;-76
2021/06/14 10:36:53;;;;;;;7.40;1.90;;;37.30;19.30;;;;;;6071506;23;20014;-76
2021/06/14 10:39:24;;;;;;;5.75;1.90;;;37.80;18.50;;;;;;6071530;23;20018;-76
2021/06/14 10:41:52;;;;;;;5.53;2.08;;;38.30;18.20;;;;;;6095556;23;20325;-76
2021/06/14 10:44:18;;;;;;;5.78;2.20;;;38.70;17.60;;;;;;6095438;23;20014;-76
2021/06/14 10:46:47;;;;;;;14.15;2.42;;;39.30;17.70;;;;;;6095399;23;20515;-73
2021/06/14 10:49:15;;;;;;;6.55;2.28;;;39.80;16.80;;;;;;6071358;23;20018;-76
2021/06/14 10:51:41;;;;;;;5.63;1.80;;;40.10;16.40;;;;;;6095363;23;20017;-73
2021/06/14 10:54:46;;;;;;;8.38;2.45;;;40.50;16.40;;;;;;6071594;23;20089;-74
2021/06/14 10:57:14;;;;;;;6.60;2.17;;;40.80;16.40;;;;;;6096777;23;20116;-76
2021/06/14 11:00:01;;;;;;;7.75;2.67;;;41.30;15.70;;;;;;6094985;23;20078;-73
2021/06/14 11:02:27;;;;;;;5.00;2.42;;;41.70;16.00;;;;;;6097119;23;20089;-76
2021/06/14 11:05:05;;;;;;;6.55;2.28;;;42.10;15.30;;;;;;6071476;23;20018;-73
2021/06/14 11:07:31;;;;;;;7.45;3.53;;;42.60;15.20;;;;;;6071216;23;20015;-73
2021/06/14 11:09:58;;;;;;;11.02;2.60;;;42.90;14.60;;;;;;6096768;23;20075;-72
2021/06/14 11:12:27;;;;;;;6.82;2.53;;;43.30;14.50;;;;;;6071262;23;20014;-73
2021/06/14 11:14:54;;;;;;;8.20;2.33;;;43.30;14.20;;;;;;6071079;23;20018;-73
2021/06/14 11:17:40;;;;;;;5.32;2.22;;;43.40;13.80;;;;;;6071025;23;20093;-73
2021/06/14 11:20:31;;;;;;;10.00;2.85;;;43.40;13.80;;;;;;6097166;23;20014;-73
2021/06/14 11:22:57;;;;;;;9.82;2.80;;;43.70;14.10;;;;;;6047322;23;20018;-76
2021/06/14 11:25:44;;;;;;;6.15;2.53;;;43.90;13.70;;;;;;6096877;23;20022;-76
2021/06/14 11:28:12;;;;;;;6.55;2.20;;;44.10;13.20;;;;;;6071117;23;20045;-77
2021/06/14 11:30:57;;;;;;;8.77;2.40;;;44.00;13.00;;;;;;6096058;23;20106;-73
2021/06/14 11:33:44;;;;;;;6.13;2.28;;;44.10;13.40;;;;;;6097039;23;20372;-73
2021/06/14 11:37:07;;;;;;;6.60;2.55;;;44.50;12.80;;;;;;6070905;23;20399;-77
2021/06/14 11:39:33;;;;;;;12.23;2.40;;;44.50;12.60;;;;;;6070967;23;20030;-76
2021/06/14 11:45:07;;;;;;;7.07;2.70;;;45.20;13.00;;;;;;6095278;23;20081;-76
2021/06/14 11:47:39;;;;;;;8.88;2.40;;;45.50;12.30;;;;;;6095057;23;20030;-73
2021/06/14 11:50:10;;;;;;;6.20;2.20;;;45.80;11.80;;;;;;6096811;23;20015;-73
2021/06/14 11:52:37;;;;;;;8.45;2.60;;;46.00;11.90;;;;;;6096539;23;20317;-73
2021/06/14 11:55:25;;;;;;;4.80;2.28;;;46.10;11.60;;;;;;6096664;23;20018;-73
2021/06/14 11:57:56;;;;;;;5.90;2.67;;;46.50;12.10;;;;;;6096538;23;20011;-76
2021/06/14 12:01:03;;;;;;;7.35;2.10;;;46.70;11.30;;;;;;6094912;23;20021;-76
2021/06/14 12:03:30;;;;;;;4.90;2.47;;;46.80;11.50;;;;;;6094937;23;20009;-73
2021/06/14 12:05:56;;;;;;;6.95;2.47;;;47.00;11.50;;;;;;6096861;23;20019;-76
2021/06/14 12:08:25;;;;;;;7.93;2.40;;;47.10;11.20;;;;;;6070860;23;20017;-73
2021/06/14 12:10:57;;;;;;;7.88;2.47;;;47.30;10.80;;;;;;6095969;23;20026;-73
2021/06/14 12:13:24;;;;;;;5.95;2.38;;;47.70;10.60;;;;;;6096915;23;20344;-76
2021/06/14 12:15:55;;;;;;;6.00;2.25;;;47.80;10.30;;;;;;6072937;23;20077;-73
2021/06/14 12:18:22;;;;;;;8.25;2.78;;;48.10;10.50;;;;;;6098415;23;20041;-76
2021/06/14 12:21:13;;;;;;;7.55;2.63;;;48.10;10.90;;;;;;6098801;23;20018;-73
2021/06/14 12:23:42;;;;;;;7.72;2.63;;;48.00;10.20;;;;;;6098297;23;20007;-73
2021/06/14 12:26:46;;;;;;;6.13;1.98;;;47.90;10.10;;;;;;6073216;23;20095;-75
2021/06/14 12:29:31;;;;;;;6.25;2.03;;;47.70;10.00;;;;;;6098143;23;20046;-76
2021/06/14 12:32:17;;;;;;;4.75;2.03;;;47.30;10.10;;;;;;6097011;23;20440;-76
2021/06/14 12:34:45;;;;;;;5.68;2.03;;;47.50;9.90;;;;;;6096510;23;20011;-75
2021/06/14 12:37:18;;;;;;;5.25;2.20;;;47.70;9.90;;;;;;6096652;23;20053;-76
2021/06/14 12:40:35;;;;;;;6.50;2.33;;;47.70;9.80;;;;;;6096688;23;20034;-73
2021/06/14 12:43:06;;;;;;;6.47;2.30;;;47.70;10.20;;;;;;6098193;23;20029;-75
2021/06/14 12:45:33;;;;;;;5.22;2.53;;;47.50;10.10;;;;;;6098476;23;20440;-76
2021/06/14 12:48:05;;;;;;;6.22;2.55;;;47.20;10.10;;;;;;6072588;23;20437;-72
2021/06/14 12:51:09;;;;;;;6.20;2.30;;;46.90;10.00;;;;;;6098402;23;20022;-73
2021/06/14 12:53:36;;;;;;;13.30;2.30;;;46.30;10.50;;;;;;6072590;23;20014;-76
2021/06/14 12:56:02;;;;;;;11.00;2.60;;;46.30;10.50;;;;;;6096503;23;20026;-72
2021/06/14 12:58:36;;;;;;;6.95;2.15;;;46.00;10.70;;;;;;6048447;23;20345;-72
2021/06/14 13:01:08;;;;;;;6.97;2.13;;;45.10;11.00;;;;;;6072790;23;20025;-73
2021/06/14 13:03:37;;;;;;;3.92;1.80;;;44.20;11.60;;;;;;6096545;23;20015;-73
2021/06/14 13:06:05;;;;;;;3.92;1.63;;;42.60;11.30;;;;;;6097732;23;20019;-76
2021/06/14 13:08:50;;;;;;;5.25;1.67;;;40.80;12.20;;;;;;6072559;23;20199;-72
2021/06/14 13:11:16;;;;;;;4.47;2.05;;;39.30;13.50;;;;;;6072327;23;20015;-76
2021/06/14 13:14:02;;;;;;;5.80;1.60;;;38.10;14.50;;;;;;6097801;23;20372;-72
2021/06/14 13:16:30;;;;;;;4.95;1.90;;;37.30;14.90;;;;;;6097794;23;20038;-76
2021/06/14 13:19:22;;;;;;;4.47;1.83;;;36.50;15.10;;;;;;6072518;23;20057;-73
2021/06/14 13:21:48;;;;;;;5.63;2.35;;;35.80;16.00;;;;;;6095964;23;20010;-72
2021/06/14 13:24:14;;;;;;;7.10;2.00;;;35.20;16.60;;;;;;6096219;23;20344;-73